Time;durP1;ratioP1;P1;durP2;ratioP2;P2;SDS_P1;SDS_P2;PMS_P1;PMS_P2;Temp;Humidity;BMP_temperature;BMP_pressure;BME280_temperature;BME280_humidity;BME280_pressure;Samples;Min_cycle;Max_cycle;Signal;HPM_P1;HPM_P2
2021/12/17 00:06:55;;;;;;;215.40;40.50;;;9.90;99.90;;;;;;5014661;28;20046;-83
2021/12/17 00:09:21;;;;;;;147.60;33.63;;;9.90;99.90;;;;;;4999709;28;20097;-84
2021/12/17 00:11:47;;;;;;;142.13;33.10;;;9.90;99.90;;;;;;5033871;28;20444;-83
2021/12/17 00:14:20;;;;;;;232.18;41.05;;;9.90;99.90;;;;;;5033026;28;20041;-84
2021/12/17 00:16:45;;;;;;;218.15;41.28;;;9.90;99.90;;;;;;5015516;28;20051;-84
2021/12/17 00:19:27;;;;;;;183.93;36.88;;;9.90;99.90;;;;;;5017002;28;20037;-84
2021/12/17 00:44:13;;;;;;;156.65;30.80;;;9.90;99.90;;;;;;5016400;28;20034;-83
2021/12/17 00:49:31;;;;;;;152.85;27.65;;;9.90;99.90;;;;;;5017604;28;20061;-83
2021/12/17 00:52:00;;;;;;;168.20;29.92;;;9.90;99.90;;;;;;5014914;28;20555;-83
2021/12/17 00:54:38;;;;;;;188.75;32.40;;;9.90;99.90;;;;;;5002385;28;20056;-84
2021/12/17 00:57:14;;;;;;;164.48;30.73;;;9.90;99.90;;;;;;5031018;28;20034;-84
2021/12/17 00:59:42;;;;;;;147.85;28.40;;;9.90;99.90;;;;;;5008694;28;20850;-83
2021/12/17 01:02:12;;;;;;;145.23;28.17;;;9.90;99.90;;;;;;4999092;28;20053;-83
2021/12/17 01:04:43;;;;;;;133.27;26.77;;;9.90;99.90;;;;;;4999498;28;20052;-84
2021/12/17 01:07:10;;;;;;;149.77;27.50;;;9.90;99.90;;;;;;5013180;28;20053;-83
2021/12/17 01:09:36;;;;;;;150.88;29.05;;;9.90;99.90;;;;;;5007847;28;20386;-83
2021/12/17 01:12:03;;;;;;;199.07;31.38;;;9.90;99.90;;;;;;4999941;28;20037;-84
2021/12/17 01:14:30;;;;;;;124.43;25.35;;;9.90;99.90;;;;;;5001450;28;20034;-83
2021/12/17 01:17:00;;;;;;;122.25;25.83;;;9.90;99.90;;;;;;5016257;28;20034;-84
2021/12/17 01:24:45;;;;;;;131.07;25.95;;;9.90;99.90;;;;;;5031129;28;20045;-83
2021/12/17 01:35:39;;;;;;;;;;;9.80;99.90;;;;;;5014443;28;20049;-83
2021/12/17 01:41:02;;;;;;;84.78;22.70;;;9.80;99.90;;;;;;5025170;28;20103;-84
2021/12/17 01:43:31;;;;;;;91.22;22.73;;;9.80;99.90;;;;;;5035514;28;20038;-84
2021/12/17 01:45:58;;;;;;;72.55;21.17;;;9.80;99.90;;;;;;5019810;28;20092;-83
2021/12/17 01:48:31;;;;;;;78.00;20.33;;;9.70;99.90;;;;;;5017795;28;20054;-84
2021/12/17 02:01:41;;;;;;;40.03;16.08;;;9.70;99.90;;;;;;5029262;28;20056;-83
2021/12/17 02:04:07;;;;;;;45.08;15.70;;;9.70;99.90;;;;;;5004311;28;20451;-84
2021/12/17 02:06:37;;;;;;;42.20;15.65;;;9.70;99.90;;;;;;5013468;28;20106;-84
2021/12/17 02:20:23;;;;;;;45.58;15.93;;;9.70;99.90;;;;;;5016295;28;20081;-84
2021/12/17 02:31:46;;;;;;;44.13;15.85;;;9.80;99.90;;;;;;5029493;28;20064;-84
2021/12/17 02:34:26;;;;;;;42.97;15.60;;;9.70;99.90;;;;;;5013665;28;20080;-84
2021/12/17 02:36:53;;;;;;;35.40;13.43;;;9.80;99.90;;;;;;5015893;28;20044;-84
2021/12/17 02:47:38;;;;;;;36.67;14.27;;;9.70;99.90;;;;;;5017645;28;20045;-84
2021/12/17 02:50:07;;;;;;;41.00;14.48;;;9.80;99.90;;;;;;5015732;28;20137;-84
2021/12/17 02:52:36;;;;;;;48.00;15.73;;;9.80;99.90;;;;;;5000604;28;20599;-84
2021/12/17 02:55:06;;;;;;;48.85;15.80;;;9.70;99.90;;;;;;5017790;28;20064;-83
2021/12/17 02:57:33;;;;;;;40.97;16.17;;;9.70;99.90;;;;;;5019285;28;20051;-84
2021/12/17 02:59:59;;;;;;;40.20;16.67;;;9.70;99.90;;;;;;5018782;28;20514;-84
2021/12/17 03:02:29;;;;;;;59.53;18.10;;;9.80;99.90;;;;;;5000468;28;20041;-84
2021/12/17 03:04:58;;;;;;;43.05;15.25;;;9.70;99.90;;;;;;5016344;28;20037;-84
2021/12/17 03:07:23;;;;;;;36.95;14.45;;;9.80;99.90;;;;;;4999432;28;20045;-84
2021/12/17 03:12:33;;;;;;;49.97;16.20;;;9.70;99.90;;;;;;5015816;28;20377;-84
2021/12/17 03:15:09;;;;;;;40.30;14.82;;;9.70;99.90;;;;;;4998907;28;20096;-84
2021/12/17 03:18:10;;;;;;;45.10;15.95;;;9.70;99.90;;;;;;5034115;28;20407;-84
2021/12/17 03:25:50;;;;;;;33.95;13.50;;;9.70;99.90;;;;;;5016688;28;20042;-84
2021/12/17 03:28:16;;;;;;;28.05;13.45;;;9.70;99.90;;;;;;5009829;28;20034;-84
2021/12/17 03:30:41;;;;;;;30.63;13.98;;;9.70;99.90;;;;;;4999687;28;20125;-84
2021/12/17 03:33:07;;;;;;;38.38;13.80;;;9.70;99.90;;;;;;5017137;28;20443;-84
2021/12/17 03:35:33;;;;;;;31.08;13.20;;;9.80;99.90;;;;;;4997032;28;20151;-83
2021/12/17 03:37:58;;;;;;;30.25;13.25;;;9.70;99.90;;;;;;5017885;28;20439;-84
2021/12/17 03:40:24;;;;;;;35.00;13.15;;;9.70;99.90;;;;;;4998512;28;20099;-84
2021/12/17 03:42:51;;;;;;;34.42;13.02;;;9.80;99.90;;;;;;5000933;28;20087;-84
2021/12/17 03:45:19;;;;;;;35.53;13.63;;;9.70;99.90;;;;;;5030751;28;20048;-84
2021/12/17 03:47:45;;;;;;;37.42;13.75;;;9.70;99.90;;;;;;5014206;28;20480;-84
2021/12/17 03:50:12;;;;;;;35.78;13.63;;;9.70;99.90;;;;;;5015278;28;20060;-84
2021/12/17 03:52:37;;;;;;;42.55;14.55;;;9.70;99.90;;;;;;5014074;28;20038;-84
2021/12/17 03:55:04;;;;;;;32.40;13.30;;;9.70;99.90;;;;;;5000872;28;20052;-84
2021/12/17 03:57:30;;;;;;;28.75;12.65;;;9.70;99.90;;;;;;5000715;28;20099;-84
2021/12/17 03:59:56;;;;;;;34.40;13.40;;;9.70;99.90;;;;;;5000698;28;20053;-84
2021/12/17 04:02:22;;;;;;;36.03;13.77;;;9.70;99.90;;;;;;5001381;28;20059;-84
2021/12/17 04:04:56;;;;;;;33.65;13.23;;;9.70;99.90;;;;;;5002002;28;20033;-84
2021/12/17 04:07:22;;;;;;;34.00;13.45;;;9.60;99.90;;;;;;5013886;28;20130;-84
2021/12/17 04:09:48;;;;;;;36.75;13.32;;;9.60;99.90;;;;;;5000332;28;20061;-84
2021/12/17 04:12:17;;;;;;;94.93;14.82;;;9.60;99.90;;;;;;5005501;28;20216;-84
2021/12/17 04:14:45;;;;;;;32.17;12.45;;;9.50;99.90;;;;;;5015881;28;20037;-84
2021/12/17 04:17:15;;;;;;;26.65;12.13;;;9.50;99.90;;;;;;5032283;28;20157;-84
2021/12/17 04:19:41;;;;;;;30.17;11.70;;;9.50;99.90;;;;;;5002149;28;20042;-84
2021/12/17 04:22:07;;;;;;;25.13;10.48;;;9.60;99.90;;;;;;5013390;28;20484;-84
2021/12/17 04:24:32;;;;;;;28.98;11.18;;;9.60;99.90;;;;;;5000043;28;20040;-84
2021/12/17 04:26:58;;;;;;;23.25;9.23;;;9.60;99.90;;;;;;4998982;28;20038;-83
2021/12/17 04:29:25;;;;;;;24.08;9.52;;;9.60;99.90;;;;;;4999677;28;20056;-84
2021/12/17 04:31:56;;;;;;;21.35;8.40;;;9.60;99.90;;;;;;4998533;28;20052;-84
2021/12/17 04:34:25;;;;;;;24.35;8.93;;;9.60;99.90;;;;;;5000415;28;20041;-84
2021/12/17 04:36:55;;;;;;;22.42;8.55;;;9.60;99.90;;;;;;4998003;28;20044;-84
2021/12/17 04:39:24;;;;;;;22.58;9.38;;;9.60;99.90;;;;;;5000600;28;20037;-83
2021/12/17 04:41:58;;;;;;;36.92;10.75;;;9.60;99.90;;;;;;5014584;28;20109;-84
2021/12/17 04:44:31;;;;;;;23.77;10.33;;;9.60;99.90;;;;;;5016356;28;20037;-84
2021/12/17 04:57:55;;;;;;;27.52;10.90;;;9.60;99.90;;;;;;5025779;28;20096;-84
2021/12/17 05:00:25;;;;;;;22.70;10.73;;;9.60;99.90;;;;;;4997639;28;20124;-84
2021/12/17 05:02:54;;;;;;;25.60;11.55;;;9.50;99.90;;;;;;5001439;28;20103;-84
2021/12/17 05:05:25;;;;;;;24.40;11.10;;;9.60;99.90;;;;;;4997961;28;20390;-84
2021/12/17 05:07:58;;;;;;;27.35;11.88;;;9.60;99.90;;;;;;5014149;28;20042;-84
2021/12/17 05:11:17;;;;;;;23.38;11.13;;;9.50;99.90;;;;;;5017326;28;20044;-85
2021/12/17 05:18:49;;;;;;;25.85;11.98;;;9.50;99.90;;;;;;5016876;28;20048;-84
2021/12/17 05:21:17;;;;;;;26.45;12.02;;;9.60;99.90;;;;;;5000842;28;20042;-84
2021/12/17 05:23:44;;;;;;;30.42;11.70;;;9.60;99.90;;;;;;5003090;28;20089;-84
2021/12/17 05:26:14;;;;;;;26.95;11.65;;;9.60;99.90;;;;;;5003832;28;20515;-84
2021/12/17 05:28:40;;;;;;;31.17;12.38;;;9.60;99.90;;;;;;5004182;28;20167;-84
2021/12/17 05:31:06;;;;;;;30.63;12.45;;;9.50;99.90;;;;;;5002975;28;20283;-83
2021/12/17 05:33:31;;;;;;;27.73;12.23;;;9.50;99.90;;;;;;5004434;28;20886;-84
2021/12/17 05:35:57;;;;;;;33.08;12.45;;;9.60;99.90;;;;;;5004110;28;20037;-84
2021/12/17 05:38:24;;;;;;;32.67;13.52;;;9.50;99.90;;;;;;5003837;28;20092;-84
2021/12/17 05:40:51;;;;;;;30.50;12.93;;;9.50;99.90;;;;;;5017974;28;20124;-84
2021/12/17 05:43:17;;;;;;;36.58;14.13;;;9.50;99.90;;;;;;5001729;28;20040;-84
2021/12/17 05:45:51;;;;;;;40.08;14.45;;;9.50;99.90;;;;;;5018511;28;20743;-84
2021/12/17 05:48:20;;;;;;;30.48;12.77;;;9.50;99.90;;;;;;4999863;28;20038;-84
2021/12/17 05:50:47;;;;;;;35.20;12.93;;;9.50;99.90;;;;;;4999412;28;20222;-84
2021/12/17 05:53:13;;;;;;;28.73;12.50;;;9.50;99.90;;;;;;5004170;28;20275;-84
2021/12/17 05:55:39;;;;;;;35.95;12.98;;;9.50;99.90;;;;;;5030953;28;20530;-85
2021/12/17 05:58:06;;;;;;;31.63;12.98;;;9.50;99.90;;;;;;5018288;28;20033;-85
2021/12/17 06:00:33;;;;;;;42.58;14.88;;;9.50;99.90;;;;;;5014540;28;20037;-84
2021/12/17 06:03:00;;;;;;;34.95;12.93;;;9.40;99.90;;;;;;5002257;28;20064;-83
2021/12/17 06:05:28;;;;;;;28.80;11.85;;;9.50;99.90;;;;;;4998956;28;20057;-84
2021/12/17 06:07:54;;;;;;;39.00;14.13;;;9.40;99.90;;;;;;5018470;28;20408;-84
2021/12/17 06:10:20;;;;;;;35.47;13.10;;;9.50;99.90;;;;;;5003304;28;20049;-84
2021/12/17 06:12:46;;;;;;;33.30;12.95;;;9.50;99.90;;;;;;5019517;28;20083;-83
2021/12/17 06:15:15;;;;;;;33.47;13.15;;;9.50;99.90;;;;;;5003060;28;20065;-84
2021/12/17 06:17:41;;;;;;;29.45;12.18;;;9.50;99.90;;;;;;5019946;28;20063;-84
2021/12/17 06:20:10;;;;;;;31.35;12.75;;;9.50;99.90;;;;;;5002217;28;20049;-83
2021/12/17 06:22:36;;;;;;;35.92;13.38;;;9.50;99.90;;;;;;5016848;28;20271;-84
2021/12/17 06:25:03;;;;;;;34.95;13.13;;;9.50;99.90;;;;;;5017201;28;20037;-84
2021/12/17 06:27:29;;;;;;;38.00;14.05;;;9.40;99.90;;;;;;5031231;28;20104;-84
2021/12/17 06:29:55;;;;;;;37.33;13.43;;;9.50;99.90;;;;;;5018224;28;20037;-84
2021/12/17 06:32:21;;;;;;;38.03;14.52;;;9.40;99.90;;;;;;5003775;28;20495;-84
2021/12/17 06:34:51;;;;;;;39.13;14.02;;;9.40;99.90;;;;;;5001805;28;20049;-84
2021/12/17 06:37:17;;;;;;;38.38;14.45;;;9.40;99.90;;;;;;5018013;28;20603;-84
2021/12/17 06:39:44;;;;;;;35.50;13.40;;;9.40;99.90;;;;;;5019623;28;20037;-84
2021/12/17 06:42:11;;;;;;;40.05;14.23;;;9.30;99.90;;;;;;5018994;28;20053;-84
2021/12/17 06:44:41;;;;;;;35.63;14.05;;;9.40;99.90;;;;;;5000349;28;20046;-84
2021/12/17 06:47:25;;;;;;;37.40;13.70;;;9.40;99.90;;;;;;5018435;28;20041;-84
2021/12/17 06:56:00;;;;;;;36.83;14.60;;;9.40;99.90;;;;;;5025382;28;20133;-84
2021/12/17 07:06:34;;;;;;;36.42;14.52;;;9.40;99.90;;;;;;5016256;28;20073;-84
2021/12/17 07:17:23;;;;;;;36.05;15.65;;;9.40;99.90;;;;;;5019447;28;20045;-84
2021/12/17 07:32:52;;;;;;;40.50;14.68;;;9.50;99.90;;;;;;4995702;28;20049;-84
2021/12/17 07:40:30;;;;;;;41.17;14.88;;;9.50;99.90;;;;;;5016570;28;20048;-84
2021/12/17 07:42:56;;;;;;;37.65;16.10;;;9.40;99.90;;;;;;5001854;28;20433;-84
2021/12/17 07:45:22;;;;;;;37.03;15.43;;;9.40;99.90;;;;;;5002012;28;20041;-84
2021/12/17 07:47:48;;;;;;;38.85;15.68;;;9.40;99.90;;;;;;5015234;28;22929;-84
2021/12/17 07:50:14;;;;;;;39.85;15.65;;;9.50;99.90;;;;;;5015493;28;20199;-83
2021/12/17 07:52:40;;;;;;;47.38;16.73;;;9.50;99.90;;;;;;4999155;28;20037;-84
2021/12/17 07:55:05;;;;;;;41.00;15.20;;;9.50;99.90;;;;;;5015976;28;20068;-84
2021/12/17 07:57:31;;;;;;;37.22;14.98;;;9.50;99.90;;;;;;5001905;28;20036;-84
2021/12/17 07:59:57;;;;;;;41.10;15.93;;;9.50;99.90;;;;;;5014794;28;20075;-84
2021/12/17 08:02:22;;;;;;;38.90;15.75;;;9.50;99.90;;;;;;5030291;28;20068;-84
2021/12/17 08:04:48;;;;;;;39.35;15.30;;;9.50;99.90;;;;;;5031570;28;20566;-84
2021/12/17 08:07:13;;;;;;;35.88;14.38;;;9.60;99.90;;;;;;5012269;28;20029;-84
2021/12/17 08:09:40;;;;;;;37.20;15.25;;;9.50;99.90;;;;;;5003704;28;20107;-84
2021/12/17 08:12:08;;;;;;;34.03;15.80;;;9.50;99.90;;;;;;5002994;28;20041;-83
2021/12/17 08:14:34;;;;;;;31.40;14.52;;;9.60;99.90;;;;;;5004545;28;20037;-83
2021/12/17 08:17:14;;;;;;;37.25;16.05;;;9.60;99.90;;;;;;5017463;28;20130;-84
2021/12/17 08:25:11;;;;;;;34.38;15.15;;;9.60;99.90;;;;;;5016748;28;20049;-84
2021/12/17 08:32:42;;;;;;;33.90;14.45;;;9.70;99.90;;;;;;5020401;28;20045;-84
2021/12/17 08:35:08;;;;;;;32.42;14.00;;;9.70;99.90;;;;;;4997557;28;20072;-84
2021/12/17 08:37:34;;;;;;;33.35;14.27;;;9.70;99.90;;;;;;5003189;28;20274;-84
2021/12/17 08:40:00;;;;;;;37.20;15.30;;;9.70;99.90;;;;;;5033927;28;20128;-84
2021/12/17 08:42:26;;;;;;;32.25;14.45;;;9.70;99.90;;;;;;4998178;28;20045;-84
2021/12/17 08:44:53;;;;;;;34.30;14.13;;;9.80;99.90;;;;;;4999614;28;20492;-84
2021/12/17 08:47:18;;;;;;;31.10;14.30;;;9.70;99.90;;;;;;5017467;28;20042;-84
2021/12/17 08:49:48;;;;;;;30.55;13.95;;;9.80;99.90;;;;;;4997071;28;20499;-84
2021/12/17 08:52:14;;;;;;;33.78;14.32;;;9.80;99.90;;;;;;5013775;28;20030;-84
2021/12/17 08:54:40;;;;;;;29.33;14.05;;;9.80;99.90;;;;;;5014125;28;20417;-84
2021/12/17 08:57:06;;;;;;;31.10;13.52;;;9.90;99.90;;;;;;5012355;28;20042;-84
2021/12/17 08:59:32;;;;;;;34.65;14.25;;;9.90;99.90;;;;;;5014149;28;20049;-84
2021/12/17 09:01:58;;;;;;;31.33;13.63;;;9.80;99.90;;;;;;5013694;28;20439;-84
2021/12/17 09:04:27;;;;;;;25.75;13.48;;;9.90;99.90;;;;;;4999867;28;20459;-84
2021/12/17 09:06:54;;;;;;;30.25;14.00;;;9.90;99.90;;;;;;4995725;28;20433;-84
2021/12/17 09:09:22;;;;;;;30.65;14.10;;;10.00;99.90;;;;;;5001536;28;20037;-84
2021/12/17 09:11:48;;;;;;;30.67;14.23;;;10.00;99.90;;;;;;5004977;28;20046;-84
2021/12/17 09:14:16;;;;;;;28.33;13.70;;;10.00;99.90;;;;;;5006367;28;20037;-83
2021/12/17 09:16:42;;;;;;;30.33;15.23;;;10.00;99.90;;;;;;5007721;28;20022;-84
2021/12/17 09:19:09;;;;;;;26.63;14.00;;;10.00;99.90;;;;;;5007022;28;20508;-83
2021/12/17 09:21:35;;;;;;;26.05;13.00;;;10.00;99.90;;;;;;5005641;28;20044;-84
2021/12/17 09:24:01;;;;;;;26.40;13.48;;;10.00;99.90;;;;;;5040119;28;20044;-84
2021/12/17 09:26:27;;;;;;;23.45;12.68;;;10.10;99.90;;;;;;5004566;28;20038;-83
2021/12/17 09:28:52;;;;;;;29.52;13.98;;;10.10;99.90;;;;;;5015544;28;20044;-83
2021/12/17 09:31:19;;;;;;;26.77;13.85;;;10.00;99.90;;;;;;5000059;28;20037;-84
2021/12/17 09:33:47;;;;;;;21.83;13.18;;;10.10;99.90;;;;;;5014823;28;20128;-83
2021/12/17 09:36:13;;;;;;;25.40;13.43;;;10.10;99.90;;;;;;4996792;28;20576;-84
2021/12/17 09:38:39;;;;;;;23.08;13.25;;;10.10;99.90;;;;;;5001046;28;20037;-84
2021/12/17 09:41:05;;;;;;;29.00;14.27;;;10.10;99.90;;;;;;4999045;28;20456;-84
2021/12/17 09:43:35;;;;;;;19.45;10.93;;;10.20;99.90;;;;;;5017061;28;20037;-84
2021/12/17 09:46:06;;;;;;;24.15;12.10;;;10.20;99.90;;;;;;5014877;28;20041;-84
2021/12/17 09:48:33;;;;;;;23.95;13.10;;;10.20;99.90;;;;;;4999471;28;20114;-84
2021/12/17 09:50:59;;;;;;;22.52;12.38;;;10.20;99.90;;;;;;5011551;28;21835;-83
2021/12/17 09:53:24;;;;;;;22.60;12.75;;;10.30;99.90;;;;;;4999589;28;20037;-84
2021/12/17 09:55:51;;;;;;;26.50;13.77;;;10.20;99.90;;;;;;5013496;28;20064;-84
2021/12/17 09:58:18;;;;;;;26.13;13.55;;;10.30;99.90;;;;;;5003328;28;20041;-84
2021/12/17 10:00:44;;;;;;;23.67;13.30;;;10.30;99.90;;;;;;5036941;28;20489;-84
2021/12/17 10:03:10;;;;;;;26.95;14.85;;;10.30;99.90;;;;;;5007836;28;20052;-84
2021/12/17 10:05:38;;;;;;;26.67;14.18;;;10.30;99.90;;;;;;4999460;28;20049;-84
2021/12/17 10:08:09;;;;;;;27.48;15.15;;;10.30;99.90;;;;;;5033546;28;20042;-83
2021/12/17 10:10:41;;;;;;;27.77;14.57;;;10.30;99.90;;;;;;5023240;28;20049;-84
2021/12/17 10:13:13;;;;;;;30.35;16.42;;;10.30;99.90;;;;;;5044192;28;20033;-83
2021/12/17 10:15:42;;;;;;;30.90;15.55;;;10.30;99.90;;;;;;5011547;28;20036;-84
2021/12/17 10:18:08;;;;;;;32.17;17.10;;;10.30;99.90;;;;;;5015049;28;20508;-83
2021/12/17 10:20:40;;;;;;;29.10;15.38;;;10.30;99.90;;;;;;5009976;28;20112;-84
2021/12/17 10:23:08;;;;;;;30.10;15.45;;;10.40;99.90;;;;;;5021194;28;20048;-83
2021/12/17 10:25:42;;;;;;;29.17;14.48;;;10.40;99.90;;;;;;5002497;28;20100;-84
2021/12/17 10:28:08;;;;;;;26.17;14.23;;;10.40;99.90;;;;;;5024449;28;20241;-84
2021/12/17 10:30:36;;;;;;;29.20;13.82;;;10.30;99.90;;;;;;5007494;28;20129;-84
2021/12/17 10:33:06;;;;;;;27.33;13.25;;;10.40;99.90;;;;;;5006249;28;20065;-84
2021/12/17 10:35:33;;;;;;;25.02;12.48;;;10.40;99.90;;;;;;5022895;28;20037;-84
2021/12/17 10:38:04;;;;;;;24.08;12.43;;;10.40;99.90;;;;;;5026064;28;20064;-84
2021/12/17 10:40:46;;;;;;;25.42;11.57;;;10.40;99.90;;;;;;5004419;28;20504;-84
2021/12/17 10:43:25;;;;;;;26.27;12.35;;;10.50;99.90;;;;;;5023321;28;20042;-84
2021/12/17 10:46:30;;;;;;;25.52;12.55;;;10.50;99.90;;;;;;5015667;28;20311;-83
2021/12/17 10:54:14;;;;;;;20.17;11.05;;;10.50;99.90;;;;;;5022278;28;20103;-84
2021/12/17 10:56:49;;;;;;;22.52;10.75;;;10.50;99.90;;;;;;5017884;28;20445;-84
2021/12/17 10:59:23;;;;;;;17.20;10.02;;;10.50;99.90;;;;;;5038713;28;20049;-83
2021/12/17 11:01:54;;;;;;;19.23;9.98;;;10.50;99.90;;;;;;5018884;28;20174;-83
2021/12/17 11:04:23;;;;;;;23.08;11.55;;;10.50;99.90;;;;;;5006273;28;20045;-84
2021/12/17 11:06:54;;;;;;;21.20;11.23;;;10.50;99.90;;;;;;5002009;28;20603;-84
2021/12/17 11:09:54;;;;;;;21.40;12.13;;;10.50;99.90;;;;;;5020598;28;20037;-84
2021/12/17 11:12:38;;;;;;;18.75;10.80;;;10.60;99.90;;;;;;5020543;28;20075;-84
2021/12/17 11:15:12;;;;;;;23.55;11.43;;;10.50;99.90;;;;;;5002179;28;20375;-84
2021/12/17 11:17:40;;;;;;;20.65;10.98;;;10.50;99.90;;;;;;5002070;28;20041;-84
2021/12/17 11:20:08;;;;;;;16.25;10.77;;;10.60;99.90;;;;;;5015135;28;20033;-84
2021/12/17 11:22:36;;;;;;;16.65;9.35;;;10.60;99.90;;;;;;5000688;28;20040;-84
2021/12/17 11:25:02;;;;;;;22.70;11.15;;;10.60;99.90;;;;;;5016920;28;20522;-84
2021/12/17 11:27:28;;;;;;;16.05;9.43;;;10.60;99.90;;;;;;5002422;28;20403;-84
2021/12/17 11:29:54;;;;;;;20.20;10.13;;;10.70;99.90;;;;;;5002850;28;20037;-84
2021/12/17 11:32:20;;;;;;;23.30;10.50;;;10.70;99.90;;;;;;5032315;28;20937;-84
2021/12/17 11:34:46;;;;;;;21.73;11.18;;;10.60;99.90;;;;;;5014626;28;20115;-84
2021/12/17 11:37:15;;;;;;;15.02;9.10;;;10.60;99.90;;;;;;4997027;28;20416;-84
2021/12/17 11:39:47;;;;;;;17.25;10.27;;;10.60;99.90;;;;;;5031534;28;20048;-84
2021/12/17 11:42:29;;;;;;;18.10;9.60;;;10.70;99.90;;;;;;5001521;28;20125;-84
2021/12/17 11:47:47;;;;;;;12.00;7.60;;;10.80;99.90;;;;;;5014425;28;20107;-84
2021/12/17 11:50:16;;;;;;;13.23;7.28;;;10.80;99.90;;;;;;4997926;28;20049;-84
2021/12/17 11:52:47;;;;;;;10.65;6.88;;;10.70;99.90;;;;;;5016520;28;20056;-84
2021/12/17 11:55:23;;;;;;;9.70;6.45;;;10.70;99.90;;;;;;4998205;28;20064;-83
2021/12/17 11:57:52;;;;;;;11.27;7.10;;;10.70;99.90;;;;;;5033950;28;20145;-84
2021/12/17 12:00:38;;;;;;;11.68;6.85;;;10.70;99.90;;;;;;5016389;28;20045;-84
2021/12/17 12:03:15;;;;;;;13.65;6.63;;;10.80;99.90;;;;;;4998996;28;20336;-84
2021/12/17 12:05:43;;;;;;;11.23;6.55;;;10.70;99.90;;;;;;5028483;28;20048;-84
2021/12/17 12:08:28;;;;;;;11.20;6.45;;;10.70;99.90;;;;;;5014947;28;20049;-84
2021/12/17 12:11:12;;;;;;;9.13;6.40;;;10.70;99.90;;;;;;5015073;28;20037;-84
2021/12/17 12:13:45;;;;;;;11.65;6.22;;;10.70;99.90;;;;;;5032985;28;20188;-84
2021/12/17 12:16:15;;;;;;;9.10;5.95;;;10.80;99.90;;;;;;5002954;28;20503;-84
2021/12/17 12:19:08;;;;;;;8.07;5.47;;;10.80;99.90;;;;;;5032513;28;20057;-83
2021/12/17 12:21:37;;;;;;;8.15;4.13;;;10.80;99.90;;;;;;5007684;28;20049;-83
2021/12/17 12:24:11;;;;;;;6.78;4.20;;;10.70;99.90;;;;;;5002624;28;20083;-84
2021/12/17 12:26:43;;;;;;;8.18;4.13;;;10.70;99.90;;;;;;5019695;28;20041;-84
2021/12/17 12:29:21;;;;;;;5.30;3.40;;;10.60;99.90;;;;;;5016380;28;20453;-84
2021/12/17 12:32:22;;;;;;;3.70;2.45;;;10.60;99.90;;;;;;5001440;28;20439;-83
2021/12/17 12:34:48;;;;;;;3.90;2.75;;;10.70;99.90;;;;;;5000451;28;20088;-84
2021/12/17 12:37:22;;;;;;;3.33;2.50;;;10.60;99.90;;;;;;5013343;28;20073;-84
2021/12/17 12:39:49;;;;;;;4.22;2.80;;;10.60;99.90;;;;;;5001763;28;20080;-84
2021/12/17 12:42:32;;;;;;;3.97;2.97;;;10.60;99.90;;;;;;5000754;28;20055;-84
2021/12/17 12:44:57;;;;;;;4.15;3.05;;;10.50;99.90;;;;;;5008100;28;20037;-84
2021/12/17 12:47:26;;;;;;;4.25;3.38;;;10.60;99.90;;;;;;5012630;28;20444;-83
2021/12/17 12:50:06;;;;;;;7.65;3.88;;;10.50;99.90;;;;;;4998490;28;20585;-84
2021/12/17 12:52:32;;;;;;;6.32;3.85;;;10.50;99.90;;;;;;5016561;28;20044;-84
2021/12/17 12:55:13;;;;;;;6.90;3.90;;;10.50;99.90;;;;;;5016034;28;20053;-84
2021/12/17 12:57:48;;;;;;;5.70;4.40;;;10.50;99.90;;;;;;5018302;28;20388;-84
2021/12/17 13:00:31;;;;;;;6.53;4.70;;;10.50;99.90;;;;;;4991543;28;20115;-83
2021/12/17 13:03:21;;;;;;;6.95;4.90;;;10.50;99.90;;;;;;5014031;28;20037;-84
2021/12/17 13:05:49;;;;;;;7.25;5.20;;;10.50;99.90;;;;;;5013443;28;20824;-84
2021/12/17 13:08:16;;;;;;;7.47;5.07;;;10.50;99.90;;;;;;5028553;28;20046;-84
2021/12/17 13:10:50;;;;;;;8.65;5.50;;;10.50;99.90;;;;;;5012515;28;20041;-84
2021/12/17 13:13:30;;;;;;;8.45;5.07;;;10.50;99.90;;;;;;5000250;28;20695;-83
2021/12/17 13:21:33;;;;;;;8.95;5.70;;;10.50;99.90;;;;;;5008601;28;20038;-83
2021/12/17 13:24:12;;;;;;;8.55;6.10;;;10.50;99.90;;;;;;5017386;28;20049;-84
2021/12/17 13:26:47;;;;;;;9.63;5.88;;;10.50;99.90;;;;;;4998691;28;20053;-84
2021/12/17 13:29:17;;;;;;;8.77;5.82;;;10.50;99.90;;;;;;5000311;28;20052;-84
2021/12/17 13:32:09;;;;;;;8.68;6.07;;;10.40;99.90;;;;;;5014540;28;20033;-84
2021/12/17 13:34:42;;;;;;;7.40;5.40;;;10.40;99.90;;;;;;5030579;28;20066;-84
2021/12/17 13:37:07;;;;;;;10.77;5.65;;;10.40;99.90;;;;;;5019004;28;20045;-84
2021/12/17 13:39:54;;;;;;;7.38;5.72;;;10.40;99.90;;;;;;5019247;28;20060;-83
2021/12/17 13:42:22;;;;;;;7.85;5.72;;;10.40;99.90;;;;;;5034104;28;20575;-84
2021/12/17 13:45:05;;;;;;;7.30;5.57;;;10.40;99.90;;;;;;5019182;28;20069;-84
2021/12/17 13:47:40;;;;;;;8.00;5.70;;;10.40;99.90;;;;;;5017699;28;20392;-84
2021/12/17 13:50:08;;;;;;;7.22;5.28;;;10.40;99.90;;;;;;5002901;28;20030;-84
2021/12/17 13:52:38;;;;;;;9.27;5.78;;;10.40;99.90;;;;;;5018129;28;20037;-84
2021/12/17 13:55:09;;;;;;;7.95;5.65;;;10.30;99.90;;;;;;5016432;28;20508;-84
2021/12/17 13:57:35;;;;;;;6.72;5.40;;;10.30;99.90;;;;;;5011410;28;20362;-83
2021/12/17 14:00:12;;;;;;;7.82;5.28;;;10.40;99.90;;;;;;5014558;28;20098;-84
2021/12/17 14:02:40;;;;;;;9.25;5.65;;;10.30;99.90;;;;;;5001132;28;20045;-83
2021/12/17 14:05:08;;;;;;;8.02;5.57;;;10.30;99.90;;;;;;5002090;28;20337;-84
2021/12/17 14:07:35;;;;;;;6.82;5.55;;;10.30;99.90;;;;;;5001920;28;20388;-84
2021/12/17 14:10:10;;;;;;;7.65;6.15;;;10.40;99.90;;;;;;5002140;28;20037;-83
2021/12/17 14:12:42;;;;;;;7.45;5.60;;;10.30;99.90;;;;;;5004863;28;20044;-84
2021/12/17 14:15:18;;;;;;;7.05;5.53;;;10.30;99.90;;;;;;5020488;28;20044;-84
2021/12/17 14:17:46;;;;;;;6.72;5.55;;;10.30;99.90;;;;;;5017817;28;20164;-83
2021/12/17 14:20:22;;;;;;;6.90;4.20;;;10.20;99.90;;;;;;5000502;28;20993;-83
2021/12/17 14:22:50;;;;;;;6.30;4.30;;;10.30;99.90;;;;;;5000148;28;20037;-84
2021/12/17 14:25:25;;;;;;;5.88;4.43;;;10.30;99.90;;;;;;5003663;28;20123;-84
2021/12/17 14:27:52;;;;;;;5.65;4.70;;;10.30;99.90;;;;;;5018441;28;20099;-84
2021/12/17 14:30:28;;;;;;;6.28;4.95;;;10.30;99.90;;;;;;5014656;28;20052;-84
2021/12/17 14:32:54;;;;;;;6.93;5.20;;;10.30;99.90;;;;;;5020918;28;20079;-84
2021/12/17 14:36:03;;;;;;;7.97;5.60;;;10.30;99.90;;;;;;5001382;28;20049;-84
2021/12/17 14:38:52;;;;;;;7.13;5.15;;;10.30;99.90;;;;;;4929957;28;20053;-84
2021/12/17 14:41:23;;;;;;;6.80;4.65;;;10.30;99.90;;;;;;4949036;28;20418;-84
2021/12/17 14:43:56;;;;;;;7.90;5.45;;;10.30;99.90;;;;;;4981656;28;20401;-84
2021/12/17 14:46:24;;;;;;;6.88;4.78;;;10.30;99.90;;;;;;5000001;28;20449;-84
2021/12/17 15:05:12;;;;;;;11.25;5.97;;;10.20;99.90;;;;;;5013766;28;20049;-84
2021/12/17 15:07:38;;;;;;;8.23;7.05;;;10.20;99.90;;;;;;5014767;28;20044;-84
2021/12/17 15:10:07;;;;;;;9.25;6.65;;;10.20;99.90;;;;;;5016892;28;20084;-84
2021/12/17 15:15:01;;;;;;;9.48;6.82;;;10.20;99.90;;;;;;5016525;28;20353;-83
2021/12/17 15:17:26;;;;;;;10.48;6.85;;;10.30;99.90;;;;;;5000326;28;20112;-84
2021/12/17 15:19:52;;;;;;;9.30;7.07;;;10.20;99.90;;;;;;5015238;28;20049;-84
2021/12/17 15:22:18;;;;;;;9.40;7.57;;;10.30;99.90;;;;;;5014897;28;20059;-84
2021/12/17 15:24:44;;;;;;;10.82;7.85;;;10.20;99.90;;;;;;5003841;28;20037;-84
2021/12/17 15:27:10;;;;;;;10.90;7.15;;;10.30;99.90;;;;;;5015423;28;20546;-84
2021/12/17 15:29:35;;;;;;;11.25;7.30;;;10.30;99.90;;;;;;5001527;28;20076;-84
2021/12/17 15:32:01;;;;;;;12.02;7.93;;;10.20;99.90;;;;;;5019658;28;20040;-84
2021/12/17 15:34:27;;;;;;;12.52;7.32;;;10.30;99.90;;;;;;5023396;28;20120;-84
2021/12/17 15:36:53;;;;;;;9.10;7.35;;;10.20;99.90;;;;;;5017138;28;20057;-84
2021/12/17 15:39:19;;;;;;;11.65;8.32;;;10.30;99.90;;;;;;5018950;28;20064;-84
2021/12/17 15:41:48;;;;;;;10.73;7.75;;;10.20;99.90;;;;;;5000994;28;20457;-84
2021/12/17 15:44:13;;;;;;;11.23;7.65;;;10.20;99.90;;;;;;5002147;28;20041;-83
2021/12/17 15:46:39;;;;;;;10.82;7.85;;;10.30;99.90;;;;;;5000478;28;20033;-83
2021/12/17 15:49:05;;;;;;;12.73;7.82;;;10.30;99.90;;;;;;5000843;28;20060;-84
2021/12/17 15:51:34;;;;;;;13.57;8.07;;;10.20;99.90;;;;;;4995506;28;20276;-84
2021/12/17 15:54:02;;;;;;;11.25;7.68;;;10.20;99.90;;;;;;5013732;28;20073;-83
2021/12/17 15:56:31;;;;;;;10.18;7.38;;;10.30;99.90;;;;;;5013385;28;20668;-84
2021/12/17 15:58:57;;;;;;;11.13;7.97;;;10.20;99.90;;;;;;5001294;28;20311;-84
2021/12/17 16:01:22;;;;;;;12.40;7.75;;;10.30;99.90;;;;;;5009537;28;20057;-83
2021/12/17 16:03:48;;;;;;;12.20;7.50;;;10.30;99.90;;;;;;5016041;28;20058;-84
2021/12/17 16:06:14;;;;;;;10.73;6.90;;;10.20;99.90;;;;;;4995899;28;20042;-84